Time;durP1;ratioP1;P1;durP2;ratioP2;P2;SDS_P1;SDS_P2;PMS_P1;PMS_P2;Temp;Humidity;BMP_temperature;BMP_pressure;BME280_temperature;BME280_humidity;BME280_pressure;Samples;Min_cycle;Max_cycle;Signal;HPM_P1;HPM_P2
2023/03/02 00:00:54;;;;;;;;;;;;;;;8.36;75.89;95454.38;5034182;28;1044;-55
2023/03/02 00:03:21;;;;;;;;;;;;;;;8.33;75.63;95457.34;5034134;28;1056;-54
2023/03/02 00:05:47;;;;;;;;;;;;;;;8.36;75.67;95451.72;5033674;28;1035;-54
2023/03/02 00:08:15;;;;;;;;;;;;;;;8.34;75.57;95450.19;5033829;28;1307;-55
2023/03/02 00:10:41;;;;;;;;;;;;;;;8.40;75.84;95453.16;5034058;28;1914;-55
2023/03/02 00:13:07;;;;;;;;;;;;;;;8.38;75.87;95443.59;5034009;28;982;-55
2023/03/02 00:15:33;;;;;;;;;;;;;;;8.37;76.12;95447.25;5033565;28;1226;-55
2023/03/02 00:17:59;;;;;;;;;;;;;;;8.50;76.79;95437.19;5033791;28;1080;-55
2023/03/02 00:20:25;;;;;;;;;;;;;;;8.41;76.42;95438.00;5033766;28;1307;-55
2023/03/02 00:22:51;;;;;;;;;;;;;;;8.44;76.20;95435.06;5033703;28;1006;-55
2023/03/02 00:25:17;;;;;;;;;;;;;;;8.49;76.50;95430.16;5033418;28;1151;-55
2023/03/02 00:27:44;;;;;;;;;;;;;;;8.54;77.02;95424.41;5033829;28;1204;-55
2023/03/02 00:30:10;;;;;;;;;;;;;;;8.62;76.79;95431.72;5033513;28;1989;-55
2023/03/02 00:32:37;;;;;;;;;;;;;;;8.59;76.04;95430.16;5033670;28;1010;-55
2023/03/02 00:35:03;;;;;;;;;;;;;;;8.52;77.29;95431.72;5033269;28;1223;-54
2023/03/02 00:37:29;;;;;;;;;;;;;;;8.53;78.47;95430.72;5033458;28;1041;-54
2023/03/02 00:39:55;;;;;;;;;;;;;;;8.56;78.15;95422.44;5033720;28;982;-55
2023/03/02 00:42:21;;;;;;;;;;;;;;;8.54;77.65;95424.41;5033678;28;1013;-55
2023/03/02 00:44:47;;;;;;;;;;;;;;;8.53;77.98;95417.41;5033176;28;1133;-55
2023/03/02 00:47:13;;;;;;;;;;;;;;;8.57;78.76;95416.13;5033576;28;1104;-55
2023/03/02 00:49:39;;;;;;;;;;;;;;;8.46;78.95;95418.94;5033394;28;1911;-55
2023/03/02 00:52:05;;;;;;;;;;;;;;;8.29;78.38;95421.31;5033295;28;1085;-55
2023/03/02 00:54:31;;;;;;;;;;;;;;;8.32;79.14;95420.19;5033293;28;1038;-54
2023/03/02 00:56:57;;;;;;;;;;;;;;;8.29;78.97;95417.78;5033314;28;1101;-55
2023/03/02 00:59:26;;;;;;;;;;;;;;;8.27;78.77;95417.94;5033358;28;919;-55
2023/03/02 01:01:57;;;;;;;;;;;;;;;8.34;79.10;95416.38;5033370;28;1037;-55
2023/03/02 01:04:24;;;;;;;;;;;;;;;8.37;79.69;95409.94;5033144;28;1098;-55
2023/03/02 01:06:50;;;;;;;;;;;;;;;8.39;77.99;95419.47;5033189;28;1030;-55
2023/03/02 01:09:16;;;;;;;;;;;;;;;8.28;79.11;95411.63;5033165;28;1902;-55
2023/03/02 01:11:42;;;;;;;;;;;;;;;8.21;80.54;95413.16;5033423;28;1211;-54
2023/03/02 01:14:08;;;;;;;;;;;;;;;8.07;81.20;95403.78;5032927;28;1157;-55
2023/03/02 01:16:34;;;;;;;;;;;;;;;7.97;81.80;95403.78;5034274;28;1101;-55
2023/03/02 01:19:00;;;;;;;;;;;;;;;8.06;82.18;95395.91;5037087;28;1051;-55
2023/03/02 01:21:26;;;;;;;;;;;;;;;8.07;82.09;95400.28;5037021;28;970;-55
2023/03/02 01:23:52;;;;;;;;;;;;;;;8.14;81.20;95407.56;5036997;28;1250;-55
2023/03/02 01:26:18;;;;;;;;;;;;;;;8.17;80.79;95406.44;5036889;28;1995;-55
2023/03/02 01:28:44;;;;;;;;;;;;;;;8.09;81.21;95401.81;5036896;28;1050;-55
2023/03/02 01:31:10;;;;;;;;;;;;;;;8.03;81.69;95394.38;5036718;28;1962;-55
2023/03/02 01:33:36;;;;;;;;;;;;;;;8.00;82.09;95381.34;5036860;28;1053;-55
2023/03/02 01:36:03;;;;;;;;;;;;;;;7.88;82.79;95377.97;5036404;28;1275;-54
2023/03/02 01:38:29;;;;;;;;;;;;;;;7.92;82.42;95384.69;5036875;28;982;-55
2023/03/02 01:40:55;;;;;;;;;;;;;;;8.08;82.37;95383.31;5036807;28;1017;-54
2023/03/02 01:43:21;;;;;;;;;;;;;;;8.13;81.60;95381.91;5036908;28;1036;-55
2023/03/02 01:45:50;;;;;;;;;;;;;;;8.13;81.50;95376.56;5036295;28;1291;-55
2023/03/02 01:48:19;;;;;;;;;;;;;;;8.12;81.44;95380.25;5036560;28;955;-55
2023/03/02 01:50:45;;;;;;;;;;;;;;;7.92;82.30;95375.88;5036293;28;1910;-55
2023/03/02 01:53:13;;;;;;;;;;;;;;;7.90;82.33;95377.84;5036614;28;960;-55
2023/03/02 01:55:39;;;;;;;;;;;;;;;7.92;82.28;95371.38;5036109;28;1092;-55
2023/03/02 01:58:05;;;;;;;;;;;;;;;8.04;82.28;95371.25;5036282;28;1129;-55
2023/03/02 02:00:36;;;;;;;;;;;;;;;8.11;82.30;95381.22;5036387;28;978;-55
2023/03/02 02:03:08;;;;;;;;;;;;;;;8.17;82.60;95372.66;5018713;28;1044;-55
2023/03/02 02:05:36;;;;;;;;;;;;;;;8.22;81.96;95372.25;5035688;28;1156;-55
2023/03/02 02:08:03;;;;;;;;;;;;;;;8.24;81.50;95366.78;5035959;28;1012;-55
2023/03/02 02:10:29;;;;;;;;;;;;;;;8.24;82.13;95370.28;5036232;28;2023;-55
2023/03/02 02:12:55;;;;;;;;;;;;;;;8.25;82.89;95374.59;5036213;28;1044;-55
2023/03/02 02:15:21;;;;;;;;;;;;;;;8.30;82.75;95359.03;5036122;28;938;-54
2023/03/02 02:17:48;;;;;;;;;;;;;;;8.22;82.90;95366.91;5036034;28;1123;-54
2023/03/02 02:20:34;;;;;;;;;;;;;;;8.23;83.11;95365.91;5035931;28;1583;-54
2023/03/02 02:23:00;;;;;;;;;;;;;;;8.29;82.97;95365.38;5035930;28;1042;-54
2023/03/02 02:25:43;;;;;;;;;;;;;;;8.23;82.78;95360.59;5035977;28;1126;-54
2023/03/02 02:28:16;;;;;;;;;;;;;;;8.26;83.10;95362.16;5034657;28;1151;-54
2023/03/02 02:30:42;;;;;;;;;;;;;;;8.15;83.02;95361.28;5035897;28;1993;-54
2023/03/02 02:33:13;;;;;;;;;;;;;;;8.04;83.11;95361.44;5035882;28;1037;-53
2023/03/02 02:35:39;;;;;;;;;;;;;;;8.15;83.14;95358.63;5035894;28;1013;-54
2023/03/02 02:38:07;;;;;;;;;;;;;;;8.18;83.22;95362.84;5035606;28;1073;-54
2023/03/02 02:40:36;;;;;;;;;;;;;;;8.08;83.11;95362.00;5035628;28;966;-54
2023/03/02 02:43:02;;;;;;;;;;;;;;;8.03;82.52;95365.09;5035495;28;1050;-54
2023/03/02 02:45:28;;;;;;;;;;;;;;;8.11;82.18;95367.06;5035704;28;1058;-54
2023/03/02 02:47:54;;;;;;;;;;;;;;;8.07;83.03;95360.34;5035598;28;982;-54
2023/03/02 02:50:24;;;;;;;;;;;;;;;8.13;83.82;95362.44;5035454;28;1910;-54
2023/03/02 02:53:25;;;;;;;;;;;;;;;8.18;82.60;95361.03;5035473;28;982;-54
2023/03/02 02:55:53;;;;;;;;;;;;;;;8.17;82.71;95355.84;4993809;28;1281;-54
2023/03/02 02:58:19;;;;;;;;;;;;;;;8.15;83.09;95353.31;5027453;28;1153;-54
2023/03/02 03:00:45;;;;;;;;;;;;;;;8.17;83.67;95362.00;5035167;28;1105;-54
2023/03/02 03:03:29;;;;;;;;;;;;;;;8.25;84.05;95363.94;5035073;28;1140;-54
2023/03/02 03:05:56;;;;;;;;;;;;;;;8.19;84.23;95360.06;5035092;28;1046;-54
2023/03/02 03:08:58;;;;;;;;;;;;;;;8.20;83.57;95366.22;5035296;28;993;-54
2023/03/02 03:11:29;;;;;;;;;;;;;;;8.13;83.25;95365.94;4993345;28;1910;-54
2023/03/02 03:14:14;;;;;;;;;;;;;;;8.13;82.77;95370.41;5027918;28;1027;-54
2023/03/02 03:16:41;;;;;;;;;;;;;;;8.06;82.52;95367.47;5035131;28;1122;-54
2023/03/02 03:19:27;;;;;;;;;;;;;;;8.08;82.32;95360.19;5034782;28;1050;-54
2023/03/02 03:21:55;;;;;;;;;;;;;;;7.98;83.29;95357.50;5034834;28;1176;-54
2023/03/02 03:24:22;;;;;;;;;;;;;;;8.04;83.71;95356.13;5034835;28;1023;-54
2023/03/02 03:26:48;;;;;;;;;;;;;;;8.10;84.14;95357.38;5034664;28;1045;-54
2023/03/02 03:29:15;;;;;;;;;;;;;;;8.12;83.93;95358.94;5034585;28;1981;-54
2023/03/02 03:31:41;;;;;;;;;;;;;;;8.16;83.48;95357.66;5034535;28;1082;-54
2023/03/02 03:34:08;;;;;;;;;;;;;;;8.17;84.02;95363.81;5034658;28;974;-54
2023/03/02 03:36:34;;;;;;;;;;;;;;;8.16;83.62;95357.66;5034573;28;1043;-54
2023/03/02 03:39:01;;;;;;;;;;;;;;;8.15;82.98;95357.78;5034102;28;1556;-54
2023/03/02 03:41:27;;;;;;;;;;;;;;;8.10;83.15;95360.91;5034360;28;1093;-54
2023/03/02 03:43:54;;;;;;;;;;;;;;;7.92;84.05;95358.06;5034600;28;1061;-54
2023/03/02 03:46:20;;;;;;;;;;;;;;;7.90;84.77;95362.69;5034279;28;1114;-54
2023/03/02 03:48:46;;;;;;;;;;;;;;;7.82;85.40;95362.56;5034425;28;1001;-54
2023/03/02 03:51:12;;;;;;;;;;;;;;;7.81;86.73;95366.19;5034113;28;1988;-54
2023/03/02 03:53:38;;;;;;;;;;;;;;;7.92;86.14;95368.72;5034168;28;1034;-54
2023/03/02 03:56:04;;;;;;;;;;;;;;;7.99;84.78;95359.22;5034057;28;1040;-54
2023/03/02 03:58:30;;;;;;;;;;;;;;;8.02;85.23;95369.59;5034080;28;1061;-54
2023/03/02 04:00:57;;;;;;;;;;;;;;;8.05;85.13;95367.63;5034258;28;1117;-54
2023/03/02 04:03:24;;;;;;;;;;;;;;;8.01;84.42;95367.91;5033953;28;1137;-54
2023/03/02 04:05:50;;;;;;;;;;;;;;;7.93;85.20;95370.44;5034101;28;1068;-54
2023/03/02 04:08:17;;;;;;;;;;;;;;;7.97;86.02;95365.66;5033937;28;1072;-54
2023/03/02 04:10:43;;;;;;;;;;;;;;;8.03;84.91;95375.75;5033696;28;1996;-54
2023/03/02 04:13:10;;;;;;;;;;;;;;;8.05;85.28;95362.31;5034046;28;1054;-54
2023/03/02 04:15:36;;;;;;;;;;;;;;;8.09;84.97;95369.03;5033972;28;1031;-54
2023/03/02 04:18:02;;;;;;;;;;;;;;;8.02;84.37;95358.94;5033744;28;1045;-54
2023/03/02 04:20:29;;;;;;;;;;;;;;;8.06;84.49;95362.13;5033753;28;1121;-54
2023/03/02 04:22:55;;;;;;;;;;;;;;;8.09;84.95;95363.69;5033822;28;1001;-54
2023/03/02 04:25:23;;;;;;;;;;;;;;;8.05;85.23;95364.97;5033658;28;1113;-54
2023/03/02 04:27:49;;;;;;;;;;;;;;;7.99;85.76;95364.53;5033629;28;1034;-54
2023/03/02 04:30:18;;;;;;;;;;;;;;;7.96;85.73;95362.13;5033555;28;1910;-54
2023/03/02 04:32:44;;;;;;;;;;;;;;;7.94;85.73;95358.78;5033502;28;1058;-54
2023/03/02 04:35:11;;;;;;;;;;;;;;;7.95;86.28;95363.13;5033646;28;1037;-54
2023/03/02 04:37:37;;;;;;;;;;;;;;;7.96;86.29;95366.63;5033586;28;1057;-54
2023/03/02 04:40:04;;;;;;;;;;;;;;;7.92;86.40;95358.06;5033471;28;1056;-54
2023/03/02 04:42:30;;;;;;;;;;;;;;;7.89;86.07;95350.38;5033662;28;998;-54
2023/03/02 04:44:56;;;;;;;;;;;;;;;7.89;87.39;95352.19;5033614;28;985;-54
2023/03/02 04:47:22;;;;;;;;;;;;;;;7.88;87.21;95351.34;5033577;28;1208;-54
2023/03/02 04:49:53;;;;;;;;;;;;;;;7.89;86.53;95349.53;5033430;28;1988;-54
2023/03/02 04:52:19;;;;;;;;;;;;;;;7.68;86.49;95362.97;5035838;28;979;-54
2023/03/02 04:54:45;;;;;;;;;;;;;;;7.59;87.13;95360.16;5037455;28;1045;-55
2023/03/02 04:57:12;;;;;;;;;;;;;;;7.54;87.54;95350.91;5037428;28;1128;-55
2023/03/02 04:59:38;;;;;;;;;;;;;;;7.56;87.57;95351.59;5037559;28;1041;-55
2023/03/02 05:02:04;;;;;;;;;;;;;;;7.61;87.37;95350.22;5037495;28;1013;-55
2023/03/02 05:04:31;;;;;;;;;;;;;;;7.73;87.20;95353.59;5037449;28;1022;-55
2023/03/02 05:06:57;;;;;;;;;;;;;;;7.84;87.15;95357.13;5037239;28;1132;-54
2023/03/02 05:09:27;;;;;;;;;;;;;;;7.89;86.43;95357.50;5037139;28;2004;-53
2023/03/02 05:11:54;;;;;;;;;;;;;;;7.93;86.30;95365.09;5037154;28;1046;-53
2023/03/02 05:14:20;;;;;;;;;;;;;;;7.96;85.60;95362.13;5037270;28;981;-53
2023/03/02 05:16:46;;;;;;;;;;;;;;;7.96;85.79;95362.13;5037200;28;1033;-54
2023/03/02 05:19:12;;;;;;;;;;;;;;;7.93;85.99;95364.25;5037195;28;1082;-53
2023/03/02 05:21:38;;;;;;;;;;;;;;;7.81;86.26;95359.03;5037089;28;1295;-53
2023/03/02 05:24:04;;;;;;;;;;;;;;;7.81;86.89;95360.88;5036952;28;981;-53
2023/03/02 05:26:31;;;;;;;;;;;;;;;7.90;87.21;95360.03;5036960;28;1058;-53
2023/03/02 05:28:57;;;;;;;;;;;;;;;7.93;86.71;95365.09;5036976;28;1050;-53
2023/03/02 05:31:26;;;;;;;;;;;;;;;7.88;86.85;95372.66;5036594;28;1902;-54
2023/03/02 05:33:52;;;;;;;;;;;;;;;7.80;87.59;95376.00;5036818;28;1033;-53
2023/03/02 05:36:18;;;;;;;;;;;;;;;7.76;87.32;95379.09;5036757;28;966;-53
2023/03/02 05:38:44;;;;;;;;;;;;;;;7.74;87.23;95379.25;5036713;28;1301;-54
2023/03/02 05:41:10;;;;;;;;;;;;;;;7.85;87.42;95382.75;5036811;28;1034;-53
2023/03/02 05:43:38;;;;;;;;;;;;;;;7.93;87.27;95385.53;5036588;28;1064;-53
2023/03/02 05:46:04;;;;;;;;;;;;;;;8.01;86.96;95391.84;5036639;28;1037;-53
2023/03/02 05:48:30;;;;;;;;;;;;;;;8.04;85.83;95382.75;5036596;28;1022;-54
2023/03/02 05:50:57;;;;;;;;;;;;;;;8.08;86.06;95393.97;5036423;28;1973;-54
2023/03/02 05:53:23;;;;;;;;;;;;;;;8.08;85.71;95389.50;5036345;28;1078;-53
2023/03/02 05:55:49;;;;;;;;;;;;;;;8.16;85.35;95396.78;5036570;28;1036;-53
2023/03/02 05:58:16;;;;;;;;;;;;;;;8.12;85.17;95396.22;5036315;28;1022;-54
2023/03/02 06:00:43;;;;;;;;;;;;;;;8.11;84.81;95399.84;5036303;28;974;-54
2023/03/02 06:03:09;;;;;;;;;;;;;;;8.15;84.64;95395.09;5035956;28;1042;-54
2023/03/02 06:05:35;;;;;;;;;;;;;;;8.19;85.17;95399.16;5036276;28;998;-54
2023/03/02 06:08:01;;;;;;;;;;;;;;;8.23;85.68;95395.22;5036109;28;1097;-54
2023/03/02 06:10:27;;;;;;;;;;;;;;;8.27;85.34;95399.31;5036232;28;1995;-54
2023/03/02 06:12:54;;;;;;;;;;;;;;;8.27;85.56;95398.44;5036077;28;1054;-54
2023/03/02 06:15:20;;;;;;;;;;;;;;;8.22;85.89;95393.56;5036022;28;1858;-54
2023/03/02 06:17:46;;;;;;;;;;;;;;;8.21;86.48;95399.84;5036036;28;967;-53
2023/03/02 06:20:12;;;;;;;;;;;;;;;8.15;86.14;95397.75;5035787;28;958;-54
2023/03/02 06:22:40;;;;;;;;;;;;;;;8.11;86.75;95399.00;5035845;28;1045;-53
2023/03/02 06:25:07;;;;;;;;;;;;;;;8.19;86.11;95402.69;5036028;28;990;-54
2023/03/02 06:27:33;;;;;;;;;;;;;;;8.23;85.64;95411.19;5035727;28;1054;-54
2023/03/02 06:29:59;;;;;;;;;;;;;;;8.24;84.92;95412.06;5035442;28;1906;-54
2023/03/02 06:32:25;;;;;;;;;;;;;;;8.24;84.82;95412.91;5018359;28;1021;-54
2023/03/02 06:34:51;;;;;;;;;;;;;;;8.27;84.83;95404.63;5035584;28;1065;-54
2023/03/02 06:37:17;;;;;;;;;;;;;;;8.34;84.85;95412.88;5035600;28;1268;-54
2023/03/02 06:39:43;;;;;;;;;;;;;;;8.39;84.49;95408.00;5035775;28;1024;-54
2023/03/02 06:42:09;;;;;;;;;;;;;;;8.41;84.12;95411.34;5035735;28;1045;-54
2023/03/02 06:44:35;;;;;;;;;;;;;;;8.39;83.71;95411.47;5035605;28;978;-54
2023/03/02 06:47:01;;;;;;;;;;;;;;;8.43;85.29;95409.41;5035427;28;1039;-54
2023/03/02 06:49:27;;;;;;;;;;;;;;;8.45;84.23;95406.63;5035299;28;1988;-54
2023/03/02 06:51:53;;;;;;;;;;;;;;;8.48;84.44;95411.63;5035298;28;1037;-54
2023/03/02 06:54:19;;;;;;;;;;;;;;;8.50;85.76;95407.88;5035474;28;1001;-54
2023/03/02 06:56:45;;;;;;;;;;;;;;;8.66;85.07;95423.25;5017702;28;1039;-54
2023/03/02 06:59:11;;;;;;;;;;;;;;;8.70;84.15;95416.66;5035292;28;1021;-54
2023/03/02 07:01:37;;;;;;;;;;;;;;;8.87;84.10;95411.59;5017618;28;1121;-54
2023/03/02 07:04:03;;;;;;;;;;;;;;;8.82;83.54;95409.38;5017540;28;1122;-54
2023/03/02 07:06:29;;;;;;;;;;;;;;;8.92;83.80;95414.66;5034975;28;1129;-54
2023/03/02 07:08:55;;;;;;;;;;;;;;;8.84;82.94;95415.41;5035233;28;1061;-54
2023/03/02 07:11:21;;;;;;;;;;;;;;;8.96;83.65;95410.72;5034852;28;1988;-54
2023/03/02 07:13:48;;;;;;;;;;;;;;;8.99;83.89;95413.09;5034518;28;1017;-54
2023/03/02 07:16:14;;;;;;;;;;;;;;;9.12;83.33;95418.94;5034747;28;1006;-53
2023/03/02 07:18:40;;;;;;;;;;;;;;;9.11;82.49;95419.09;5034818;28;1030;-53
2023/03/02 07:21:06;;;;;;;;;;;;;;;9.10;82.93;95412.06;5017144;28;1070;-53
2023/03/02 07:23:33;;;;;;;;;;;;;;;9.16;81.41;95415.00;5017172;28;1117;-53
2023/03/02 07:25:59;;;;;;;;;;;;;;;9.11;80.64;95419.09;5034865;28;1065;-53
2023/03/02 07:28:26;;;;;;;;;;;;;;;9.02;81.23;95414.63;5034764;28;1005;-54
2023/03/02 07:30:52;;;;;;;;;;;;;;;9.12;80.34;95410.94;5034480;28;1906;-54
2023/03/02 07:33:19;;;;;;;;;;;;;;;9.18;80.07;95418.38;5034557;28;970;-54
2023/03/02 07:35:45;;;;;;;;;;;;;;;9.29;78.79;95414.66;5034178;28;1344;-53
2023/03/02 07:38:11;;;;;;;;;;;;;;;9.21;79.74;95416.41;5034650;28;1065;-54
2023/03/02 07:40:40;;;;;;;;;;;;;;;9.32;79.41;95410.88;5034615;28;1053;-54
2023/03/02 07:43:07;;;;;;;;;;;;;;;9.30;79.24;95408.34;5034514;28;993;-53
2023/03/02 07:45:33;;;;;;;;;;;;;;;9.39;79.92;95414.66;5034199;28;1062;-53
2023/03/02 07:47:59;;;;;;;;;;;;;;;9.32;79.84;95413.53;5034241;28;966;-54
2023/03/02 07:50:25;;;;;;;;;;;;;;;9.35;79.90;95413.25;5034094;28;1910;-54
2023/03/02 07:52:51;;;;;;;;;;;;;;;9.31;79.83;95411.84;5034437;28;977;-54
2023/03/02 07:55:17;;;;;;;;;;;;;;;9.21;79.53;95414.56;5034317;28;1029;-54
2023/03/02 07:57:43;;;;;;;;;;;;;;;9.16;79.87;95409.69;5034241;28;958;-54
2023/03/02 08:00:09;;;;;;;;;;;;;;;9.37;80.30;95405.91;5034153;28;1030;-54
2023/03/02 08:02:35;;;;;;;;;;;;;;;9.44;79.79;95401.69;5034092;28;1057;-54
2023/03/02 08:05:02;;;;;;;;;;;;;;;9.61;79.10;95399.22;5033951;28;1105;-54
2023/03/02 08:07:28;;;;;;;;;;;;;;;9.58;78.65;95403.03;5034175;28;962;-54
2023/03/02 08:09:54;;;;;;;;;;;;;;;9.49;79.24;95409.25;5034022;28;1894;-54
2023/03/02 08:12:20;;;;;;;;;;;;;;;9.54;78.32;95406.97;5034023;28;1024;-54
2023/03/02 08:14:47;;;;;;;;;;;;;;;9.56;77.66;95403.19;5033949;28;1001;-54
2023/03/02 08:17:13;;;;;;;;;;;;;;;9.66;77.34;95408.47;5033838;28;974;-54
2023/03/02 08:19:39;;;;;;;;;;;;;;;9.63;77.36;95416.75;5033679;28;1009;-54
2023/03/02 08:22:05;;;;;;;;;;;;;;;9.65;77.94;95412.09;5033730;28;1117;-54
2023/03/02 08:24:31;;;;;;;;;;;;;;;9.71;77.21;95416.88;5033715;28;1042;-54
2023/03/02 08:27:01;;;;;;;;;;;;;;;9.70;77.13;95411.69;5033676;28;1121;-54
2023/03/02 08:29:27;;;;;;;;;;;;;;;9.76;77.91;95409.22;5033558;28;1991;-54
2023/03/02 08:31:53;;;;;;;;;;;;;;;9.73;77.26;95408.69;5033501;28;1078;-55
2023/03/02 08:34:19;;;;;;;;;;;;;;;9.70;77.88;95415.19;5033531;28;1051;-54
2023/03/02 08:36:45;;;;;;;;;;;;;;;9.78;76.10;95409.09;5033744;28;958;-54
2023/03/02 08:39:11;;;;;;;;;;;;;;;9.81;76.07;95410.59;5033726;28;1095;-55
2023/03/02 08:41:37;;;;;;;;;;;;;;;9.96;75.52;95415.31;5033578;28;1126;-55
2023/03/02 08:44:03;;;;;;;;;;;;;;;9.91;76.20;95414.91;5033553;28;1026;-54
2023/03/02 08:46:30;;;;;;;;;;;;;;;9.79;76.86;95410.78;5033500;28;1009;-54
2023/03/02 08:48:56;;;;;;;;;;;;;;;9.71;78.44;95416.00;5033370;28;1603;-54
2023/03/02 08:51:23;;;;;;;;;;;;;;;9.71;77.99;95411.53;5033498;28;1992;-55
2023/03/02 08:53:51;;;;;;;;;;;;;;;9.65;75.46;95408.59;5033596;28;993;-54
2023/03/02 08:56:18;;;;;;;;;;;;;;;9.67;76.13;95409.28;5033396;28;1033;-55
2023/03/02 08:58:45;;;;;;;;;;;;;;;9.78;76.13;95417.09;5033398;28;1050;-55
2023/03/02 09:01:19;;;;;;;;;;;;;;;9.73;75.82;95416.69;5033336;28;1030;-54
2023/03/02 09:03:45;;;;;;;;;;;;;;;9.64;77.25;95409.63;5033261;28;1089;-55
2023/03/02 09:06:11;;;;;;;;;;;;;;;9.67;76.71;95417.31;5033411;28;986;-55
2023/03/02 09:08:37;;;;;;;;;;;;;;;9.66;76.90;95408.47;5033372;28;1038;-55
2023/03/02 09:11:03;;;;;;;;;;;;;;;9.79;76.61;95413.44;5033255;28;1985;-54
2023/03/02 09:13:29;;;;;;;;;;;;;;;9.94;76.42;95408.41;5033296;28;993;-54
2023/03/02 09:15:55;;;;;;;;;;;;;;;9.91;76.39;95412.25;5033177;28;922;-55
2023/03/02 09:21:43;;;;;;;;;;;;;;;9.71;76.56;95413.34;5033360;28;753;-55
2023/03/02 09:24:09;;;;;;;;;;;;;;;9.74;78.76;95413.06;5033052;28;1050;-54
2023/03/02 09:26:35;;;;;;;;;;;;;;;9.74;79.25;95407.72;5032976;28;1009;-54
2023/03/02 09:29:01;;;;;;;;;;;;;;;9.77;77.88;95405.59;5033211;28;982;-54
2023/03/02 09:31:27;;;;;;;;;;;;;;;9.73;78.70;95406.88;5032933;28;1907;-55
2023/03/02 09:33:55;;;;;;;;;;;;;;;9.72;78.99;95407.84;5033255;28;1030;-55
2023/03/02 09:36:23;;;;;;;;;;;;;;;9.84;77.96;95403.13;5033099;28;1006;-55
2023/03/02 09:38:50;;;;;;;;;;;;;;;9.83;79.05;95409.50;5036010;28;1053;-54
2023/03/02 09:41:19;;;;;;;;;;;;;;;9.90;78.64;95405.22;5036649;28;1109;-53
2023/03/02 09:43:51;;;;;;;;;;;;;;;9.94;78.51;95408.41;5036710;28;1030;-56
2023/03/02 09:46:26;;;;;;;;;;;;;;;10.04;78.66;95403.03;5036601;28;1049;-55
2023/03/02 09:48:56;;;;;;;;;;;;;;;10.05;78.31;95405.53;5036731;28;1074;-56
2023/03/02 09:51:34;;;;;;;;;;;;;;;10.03;77.70;95398.66;5036366;28;2024;-56
2023/03/02 09:54:00;;;;;;;;;;;;;;;10.04;78.65;95400.34;5036650;28;970;-56
2023/03/02 09:56:27;;;;;;;;;;;;;;;10.08;78.00;95394.53;5036567;28;1136;-56
2023/03/02 09:59:00;;;;;;;;;;;;;;;10.19;77.43;95397.97;5036313;28;1051;-56
2023/03/02 10:01:33;;;;;;;;;;;;;;;10.20;77.44;95402.34;5036288;28;1105;-56
2023/03/02 10:04:08;;;;;;;;;;;;;;;10.26;76.92;95399.91;5036312;28;1036;-55
2023/03/02 10:06:34;;;;;;;;;;;;;;;10.30;74.62;95395.06;5036149;28;1086;-56
2023/03/02 10:09:00;;;;;;;;;;;;;;;10.37;75.47;95398.84;5036296;28;1001;-56
2023/03/02 10:11:35;;;;;;;;;;;;;;;10.44;76.26;95391.06;5035970;28;1977;-56
2023/03/02 10:14:20;;;;;;;;;;;;;;;10.53;76.15;95390.97;5036167;28;1043;-56
2023/03/02 10:16:47;;;;;;;;;;;;;;;10.46;77.02;95381.88;5035849;28;1054;-56
2023/03/02 10:19:36;;;;;;;;;;;;;;;10.45;76.62;95385.56;5036137;28;1038;-56
2023/03/02 10:22:20;;;;;;;;;;;;;;;10.47;75.73;95382.72;5029483;28;1257;-56
2023/03/02 10:24:56;;;;;;;;;;;;;;;10.42;75.79;95391.22;5035806;28;1046;-56
2023/03/02 10:27:38;;;;;;;;;;;;;;;10.52;74.46;95388.44;5035986;28;1046;-56
2023/03/02 10:30:06;;;;;;;;;;;;;;;10.54;74.69;95376.59;5035437;28;1914;-56
2023/03/02 10:32:51;;;;;;;;;;;;;;;10.65;74.61;95372.00;5035663;28;1953;-56
2023/03/02 10:35:19;;;;;;;;;;;;;;;10.71;76.30;95366.84;5035600;28;998;-56
2023/03/02 10:37:46;;;;;;;;;;;;;;;10.67;76.77;95365.50;5035836;28;1078;-56
2023/03/02 10:40:31;;;;;;;;;;;;;;;10.71;75.97;95361.50;5035450;28;1077;-56
2023/03/02 10:42:58;;;;;;;;;;;;;;;10.80;74.56;95364.25;5035616;28;974;-55
2023/03/02 10:45:27;;;;;;;;;;;;;;;10.70;75.94;95349.16;5035335;28;1129;-55
2023/03/02 10:48:19;;;;;;;;;;;;;;;10.55;74.12;95358.75;5035329;28;1093;-56
2023/03/02 10:50:52;;;;;;;;;;;;;;;10.67;73.18;95359.31;5032548;28;2174;-56
2023/03/02 10:53:18;;;;;;;;;;;;;;;10.79;74.51;95351.88;5035405;28;1053;-56
2023/03/02 10:55:48;;;;;;;;;;;;;;;10.87;74.97;95357.25;5035332;28;967;-56
2023/03/02 10:58:21;;;;;;;;;;;;;;;10.69;74.78;95346.63;5035198;28;1010;-56
2023/03/02 11:01:02;;;;;;;;;;;;;;;10.84;73.28;95349.56;5035087;28;1034;-56
2023/03/02 11:03:28;;;;;;;;;;;;;;;10.91;75.15;95345.28;5035040;28;1047;-56
2023/03/02 11:05:55;;;;;;;;;;;;;;;10.87;76.44;95338.53;5034993;28;1046;-56
2023/03/02 11:08:23;;;;;;;;;;;;;;;11.07;73.66;95344.50;5034911;28;1132;-56
2023/03/02 11:10:51;;;;;;;;;;;;;;;10.98;72.41;95335.59;5034828;28;1914;-56
2023/03/02 11:13:19;;;;;;;;;;;;;;;10.77;74.60;95332.47;5034853;28;982;-56
2023/03/02 11:15:46;;;;;;;;;;;;;;;10.74;74.00;95333.63;5035015;28;1068;-56
2023/03/02 11:18:21;;;;;;;;;;;;;;;11.00;74.92;95332.75;5034975;28;978;-56
2023/03/02 11:20:49;;;;;;;;;;;;;;;11.14;74.90;95330.34;5034848;28;1052;-56
2023/03/02 11:23:18;;;;;;;;;;;;;;;11.19;74.00;95327.16;5034763;28;967;-55
2023/03/02 11:25:48;;;;;;;;;;;;;;;11.06;71.67;95319.59;5034619;28;1045;-55
2023/03/02 11:28:21;;;;;;;;;;;;;;;11.26;75.01;95322.84;5034845;28;1070;-56
2023/03/02 11:30:49;;;;;;;;;;;;;;;11.36;73.36;95317.38;5034530;28;1906;-56
2023/03/02 11:33:18;;;;;;;;;;;;;;;11.31;73.35;95314.34;5034701;28;970;-56
2023/03/02 11:35:49;;;;;;;;;;;;;;;11.27;70.78;95313.84;5034594;28;1108;-55
2023/03/02 11:38:26;;;;;;;;;;;;;;;11.03;73.44;95309.22;5034320;28;1077;-54
2023/03/02 11:40:55;;;;;;;;;;;;;;;10.95;72.39;95309.19;5034452;28;1073;-54
2023/03/02 11:43:21;;;;;;;;;;;;;;;10.90;71.58;95306.13;5034608;28;1041;-54
2023/03/02 11:45:54;;;;;;;;;;;;;;;11.03;72.40;95301.19;5034511;28;1034;-54
2023/03/02 11:48:25;;;;;;;;;;;;;;;11.12;70.85;95308.25;5034334;28;1099;-54
2023/03/02 11:50:59;;;;;;;;;;;;;;;11.26;72.03;95305.97;5034206;28;1985;-54
2023/03/02 11:53:28;;;;;;;;;;;;;;;11.36;72.39;95298.63;5034226;28;1026;-56
2023/03/02 11:55:54;;;;;;;;;;;;;;;11.30;71.93;95301.97;5034183;28;1035;-55
2023/03/02 11:58:23;;;;;;;;;;;;;;;11.19;71.81;95295.06;5034183;28;1587;-55
2023/03/02 12:00:49;;;;;;;;;;;;;;;11.11;72.42;95287.00;5033937;28;1233;-55
2023/03/02 12:03:15;;;;;;;;;;;;;;;11.29;71.11;95285.06;5034016;28;1072;-56
2023/03/02 12:05:43;;;;;;;;;;;;;;;11.19;72.90;95289.69;5034241;28;954;-55
2023/03/02 12:08:18;;;;;;;;;;;;;;;11.26;72.78;95282.69;5033916;28;1042;-55
2023/03/02 12:10:56;;;;;;;;;;;;;;;11.24;72.46;95286.56;5033920;28;1906;-55
2023/03/02 12:13:26;;;;;;;;;;;;;;;11.41;71.64;95282.09;5034009;28;1209;-55
2023/03/02 12:15:54;;;;;;;;;;;;;;;11.59;71.78;95280.13;5033800;28;1153;-55
2023/03/02 12:18:20;;;;;;;;;;;;;;;11.76;70.71;95272.97;5034058;28;1033;-55
2023/03/02 12:21:02;;;;;;;;;;;;;;;11.70;69.43;95273.59;5034014;28;1243;-55
2023/03/02 12:23:29;;;;;;;;;;;;;;;11.55;68.89;95272.56;5033850;28;1040;-55
2023/03/02 12:26:03;;;;;;;;;;;;;;;11.51;71.41;95264.91;5033764;28;1065;-55
2023/03/02 12:28:34;;;;;;;;;;;;;;;11.70;71.19;95270.94;5033673;28;1113;-55
2023/03/02 12:31:01;;;;;;;;;;;;;;;11.83;70.59;95268.59;5033573;28;1983;-55
2023/03/02 12:33:27;;;;;;;;;;;;;;;11.70;70.88;95260.22;5033787;28;1049;-55
2023/03/02 12:36:03;;;;;;;;;;;;;;;11.69;69.81;95255.88;5033547;28;1113;-55
2023/03/02 12:38:29;;;;;;;;;;;;;;;11.85;69.76;95257.72;5033695;28;1054;-55
2023/03/02 12:40:55;;;;;;;;;;;;;;;11.59;70.14;95257.84;5033508;28;1046;-55
2023/03/02 12:43:30;;;;;;;;;;;;;;;11.53;72.15;95260.22;5033728;28;1025;-55
2023/03/02 12:46:15;;;;;;;;;;;;;;;11.58;72.04;95251.66;5033473;28;1113;-55
2023/03/02 12:48:47;;;;;;;;;;;;;;;11.49;71.53;95255.31;5033569;28;1045;-55
2023/03/02 12:51:21;;;;;;;;;;;;;;;11.22;70.96;95253.75;5033390;28;1986;-55
2023/03/02 12:54:00;;;;;;;;;;;;;;;11.01;72.04;95251.50;5033660;28;962;-55
2023/03/02 12:56:26;;;;;;;;;;;;;;;10.87;72.34;95252.94;5033540;28;1041;-55
2023/03/02 12:58:53;;;;;;;;;;;;;;;11.03;72.04;95254.88;5033500;28;966;-55
2023/03/02 13:01:20;;;;;;;;;;;;;;;11.01;71.93;95255.03;5033402;28;970;-55
2023/03/02 13:03:46;;;;;;;;;;;;;;;10.93;72.54;95246.97;5033159;28;1010;-55
2023/03/02 13:06:13;;;;;;;;;;;;;;;10.97;72.67;95252.84;5033272;28;1141;-55
2023/03/02 13:08:42;;;;;;;;;;;;;;;10.91;73.00;95244.44;5033470;28;1073;-55
2023/03/02 13:11:08;;;;;;;;;;;;;;;10.82;73.05;95241.91;5033335;28;1902;-55
2023/03/02 13:13:37;;;;;;;;;;;;;;;10.82;72.78;95239.22;5036059;28;1017;-55
2023/03/02 13:16:04;;;;;;;;;;;;;;;10.89;73.16;95233.06;5037231;28;1117;-55